createdAt,value
2022-11-05T00:00:38.759Z,5.55
2022-11-05T00:01:59.714Z,4.13
2022-11-05T00:03:20.574Z,2.65
2022-11-05T00:04:40.923Z,1.95
2022-11-05T00:06:02.082Z,4.22
2022-11-05T00:07:26.606Z,2.92
2022-11-05T00:08:47.085Z,2.58
2022-11-05T00:09:50.882Z,2.70
2022-11-05T00:10:52.722Z,2.30
2022-11-05T00:12:13.274Z,2.88
2022-11-05T00:13:34.151Z,2.47
2022-11-05T00:14:55.503Z,2.72
2022-11-05T00:16:15.889Z,2.90
2022-11-05T00:17:18.711Z,2.67
2022-11-05T00:18:20.645Z,2.42
2022-11-05T00:19:23.439Z,2.03
2022-11-05T00:20:26.220Z,2.50
2022-11-05T00:21:46.562Z,7.28
2022-11-05T00:23:06.981Z,2.65
2022-11-05T00:24:28.276Z,2.85
2022-11-05T00:25:31.087Z,2.20
2022-11-05T00:26:32.849Z,2.20
2022-11-05T00:27:35.995Z,2.30
2022-11-05T00:28:43.951Z,2.30
2022-11-05T00:29:47.390Z,2.42
2022-11-05T00:30:50.315Z,2.55
2022-11-05T00:31:52.152Z,3.00
2022-11-05T00:32:55.285Z,2.75
2022-11-05T00:33:57.070Z,2.90
2022-11-05T00:34:59.881Z,2.45
2022-11-05T00:36:04.042Z,2.53
2022-11-05T00:37:05.827Z,3.55
2022-11-05T00:38:08.568Z,5.05
2022-11-05T00:39:10.824Z,3.53
2022-11-05T00:40:15.553Z,2.30
2022-11-05T00:41:17.329Z,4.47
2022-11-05T00:42:39.853Z,3.20
2022-11-05T00:44:00.334Z,3.03
2022-11-05T00:45:05.196Z,2.60
2022-11-05T00:46:08.037Z,3.88
2022-11-05T00:47:33.500Z,2.35
2022-11-05T00:48:54.030Z,2.30
2022-11-05T00:49:55.968Z,2.28
2022-11-05T00:50:58.812Z,2.33
2022-11-05T00:52:15.480Z,2.50
2022-11-05T00:53:18.344Z,1.88
2022-11-05T00:54:20.451Z,2.67
2022-11-05T00:55:23.532Z,2.53
2022-11-05T00:56:26.540Z,3.03
2022-11-05T00:57:28.401Z,3.72
2022-11-05T00:58:31.388Z,2.33
2022-11-05T00:59:33.153Z,3.58
2022-11-05T01:00:39.162Z,3.80
2022-11-05T01:01:41.084Z,2.63
2022-11-05T01:02:44.047Z,2.17
2022-11-05T01:03:51.435Z,2.45
2022-11-05T01:04:53.785Z,2.38
2022-11-05T01:05:58.811Z,2.60
2022-11-05T01:07:00.623Z,2.75
2022-11-05T01:08:04.579Z,2.47
2022-11-05T01:09:06.370Z,4.88
2022-11-05T01:10:10.085Z,2.95
2022-11-05T01:11:32.850Z,2.67
2022-11-05T01:12:34.967Z,2.90
2022-11-05T01:13:38.823Z,3.05
2022-11-05T01:14:40.695Z,2.30
2022-11-05T01:15:45.776Z,2.00
2022-11-05T01:16:47.832Z,2.22
2022-11-05T01:17:52.485Z,2.33
2022-11-05T01:18:54.304Z,3.75
2022-11-05T01:19:57.108Z,3.10
2022-11-05T01:20:59.988Z,1.67
2022-11-05T01:22:01.784Z,3.63
2022-11-05T01:23:08.941Z,2.42
2022-11-05T01:24:13.843Z,2.35
2022-11-05T01:25:16.734Z,2.70
2022-11-05T01:26:18.558Z,2.10
2022-11-05T01:27:21.400Z,3.45
2022-11-05T01:28:24.319Z,2.78
2022-11-05T01:29:26.173Z,2.20
2022-11-05T01:30:29.100Z,2.53
2022-11-05T01:31:32.330Z,2.78
2022-11-05T01:32:36.342Z,2.50
2022-11-05T01:33:38.135Z,3.28
2022-11-05T01:34:40.983Z,5.03
2022-11-05T01:35:43.786Z,2.30
2022-11-05T01:36:45.864Z,2.95
2022-11-05T01:37:49.172Z,2.10
2022-11-05T01:38:50.974Z,2.20
2022-11-05T01:39:53.841Z,2.85
2022-11-05T01:40:55.635Z,2.58
2022-11-05T01:41:58.866Z,2.40
2022-11-05T01:43:00.797Z,2.60
2022-11-05T01:44:03.900Z,2.25
2022-11-05T01:45:13.889Z,2.28
2022-11-05T01:46:18.991Z,2.63
2022-11-05T01:47:30.019Z,2.00
2022-11-05T01:48:36.559Z,2.30
2022-11-05T01:49:38.511Z,1.70
2022-11-05T01:50:47.457Z,2.20
2022-11-05T01:51:51.288Z,2.03
2022-11-05T01:52:59.017Z,2.30
2022-11-05T01:54:03.598Z,2.13
2022-11-05T01:55:08.622Z,2.08
2022-11-05T01:56:15.973Z,2.03
2022-11-05T01:57:17.929Z,6.18
2022-11-05T01:58:26.137Z,2.30
2022-11-05T01:59:32.604Z,3.05
2022-11-05T02:00:37.204Z,2.33
2022-11-05T02:01:39.290Z,2.78
2022-11-05T02:02:44.611Z,2.30
2022-11-05T02:03:49.137Z,2.00
2022-11-05T02:04:58.542Z,3.70
2022-11-05T02:06:02.391Z,2.38
2022-11-05T02:07:07.540Z,2.17
2022-11-05T02:08:15.955Z,2.45
2022-11-05T02:09:22.451Z,2.58
2022-11-05T02:10:25.675Z,3.10
2022-11-05T02:11:28.001Z,2.95
2022-11-05T02:12:33.524Z,2.92
2022-11-05T02:13:36.308Z,2.08
2022-11-05T02:14:39.088Z,2.60
2022-11-05T02:15:51.948Z,1.65
2022-11-05T02:17:02.034Z,5.60
2022-11-05T02:18:17.689Z,3.10
2022-11-05T02:20:01.367Z,2.60
2022-11-05T02:21:27.957Z,2.50
2022-11-05T02:23:01.920Z,2.38
2022-11-05T02:24:21.365Z,3.35
2022-11-05T02:25:50.400Z,2.28
2022-11-05T02:27:04.478Z,2.33
2022-11-05T02:28:32.462Z,2.28
2022-11-05T02:30:06.697Z,1.92
2022-11-05T02:31:17.674Z,2.80
2022-11-05T02:32:32.006Z,2.67
2022-11-05T02:33:44.928Z,3.63
2022-11-05T02:34:55.757Z,2.85
2022-11-05T02:36:23.873Z,2.70
2022-11-05T02:37:37.993Z,4.22
2022-11-05T02:38:47.099Z,2.75
2022-11-05T02:39:58.432Z,2.60
2022-11-05T02:41:08.523Z,2.47
2022-11-05T02:42:16.791Z,3.85
2022-11-05T02:43:27.631Z,2.85
2022-11-05T02:44:38.706Z,3.45
2022-11-05T02:45:50.308Z,3.45
2022-11-05T02:46:58.497Z,3.20
2022-11-05T02:48:12.471Z,2.33
2022-11-05T02:49:23.837Z,3.28
2022-11-05T02:50:35.735Z,2.58
2022-11-05T02:51:46.922Z,2.72
2022-11-05T02:53:00.192Z,2.47
2022-11-05T02:54:09.180Z,2.95
2022-11-05T02:55:20.706Z,2.65
2022-11-05T02:56:25.747Z,2.25
2022-11-05T02:57:30.284Z,2.65
2022-11-05T02:58:33.840Z,2.70
2022-11-05T02:59:36.659Z,2.80
2022-11-05T03:00:48.365Z,2.13
2022-11-05T03:01:53.122Z,2.83
2022-11-05T03:02:56.477Z,2.70
2022-11-05T03:04:01.645Z,3.38
2022-11-05T03:05:04.720Z,2.72
2022-11-05T03:06:24.266Z,2.90
2022-11-05T03:07:38.176Z,2.75
2022-11-05T03:08:57.008Z,2.83
2022-11-05T03:10:31.861Z,2.15
2022-11-05T03:11:41.621Z,2.67
2022-11-05T03:12:53.231Z,2.60
2022-11-05T03:13:59.659Z,4.50
2022-11-05T03:15:15.382Z,3.45
2022-11-05T03:16:20.374Z,2.60
2022-11-05T03:17:32.364Z,2.45
2022-11-05T03:18:43.397Z,2.72
2022-11-05T03:19:49.932Z,3.53
2022-11-05T03:21:01.941Z,2.38
2022-11-05T03:22:09.927Z,1.98
2022-11-05T03:23:24.116Z,2.92
2022-11-05T03:24:30.363Z,3.25
2022-11-05T03:25:38.108Z,2.92
2022-11-05T03:26:44.355Z,2.60
2022-11-05T03:27:50.276Z,2.58
2022-11-05T03:29:00.155Z,2.50
2022-11-05T03:30:05.196Z,3.40
2022-11-05T03:31:09.056Z,3.53
2022-11-05T03:32:12.475Z,2.50
2022-11-05T03:33:21.892Z,2.45
2022-11-05T03:34:30.623Z,3.13
2022-11-05T03:35:38.167Z,3.03
2022-11-05T03:36:45.839Z,3.10
2022-11-05T03:37:51.185Z,2.88
2022-11-05T03:38:55.337Z,2.63
2022-11-05T03:40:00.509Z,2.60
2022-11-05T03:41:07.560Z,2.53
2022-11-05T03:42:15.297Z,2.40
2022-11-05T03:43:21.802Z,3.03
2022-11-05T03:44:29.586Z,3.70
2022-11-05T03:45:36.236Z,2.60
2022-11-05T03:46:44.259Z,3.05
2022-11-05T03:47:49.596Z,2.63
2022-11-05T03:48:55.683Z,2.50
2022-11-05T03:50:07.764Z,2.60
2022-11-05T03:51:17.647Z,5.95
2022-11-05T03:52:24.539Z,2.80
2022-11-05T03:53:31.033Z,3.25
2022-11-05T03:54:33.411Z,3.47
2022-11-05T03:55:40.150Z,2.60
2022-11-05T03:56:49.786Z,4.25
2022-11-05T03:57:55.128Z,2.55
2022-11-05T03:59:00.419Z,2.90
2022-11-05T04:00:06.126Z,2.92
2022-11-05T04:01:15.588Z,2.63
2022-11-05T04:02:20.382Z,2.90
2022-11-05T04:03:23.391Z,2.95
2022-11-05T04:04:25.413Z,2.90
2022-11-05T04:05:29.736Z,2.70
2022-11-05T04:06:50.082Z,2.80
2022-11-05T04:08:14.239Z,2.60
2022-11-05T04:09:35.083Z,4.28
2022-11-05T04:10:55.388Z,3.70
2022-11-05T04:12:15.810Z,3.03
2022-11-05T04:13:27.795Z,3.30
2022-11-05T04:14:31.194Z,3.25
2022-11-05T04:15:54.182Z,3.50
2022-11-05T04:17:09.426Z,5.20
2022-11-05T04:18:11.253Z,3.03
2022-11-05T04:19:13.082Z,3.00
2022-11-05T04:20:33.688Z,2.85
2022-11-05T04:21:55.316Z,2.72
2022-11-05T04:23:18.514Z,3.08
2022-11-05T04:24:21.313Z,3.17
2022-11-05T04:25:23.200Z,2.40
2022-11-05T04:26:26.015Z,3.38
2022-11-05T04:27:27.841Z,3.50
2022-11-05T04:28:50.590Z,2.97
2022-11-05T04:30:10.996Z,3.88
2022-11-05T04:31:12.753Z,3.00
2022-11-05T04:32:15.543Z,2.85
2022-11-05T04:33:17.606Z,3.53
2022-11-05T04:34:22.045Z,3.00
2022-11-05T04:35:24.773Z,3.30
2022-11-05T04:36:27.851Z,3.08
2022-11-05T04:37:31.108Z,3.17
2022-11-05T04:38:33.892Z,3.35
2022-11-05T04:39:35.659Z,2.90
2022-11-05T04:40:38.731Z,3.10
2022-11-05T04:41:40.510Z,2.88
2022-11-05T04:42:43.345Z,3.70
2022-11-05T04:43:45.114Z,2.92
2022-11-05T04:44:47.881Z,3.00
2022-11-05T04:45:49.707Z,2.50
2022-11-05T04:46:52.532Z,3.65
2022-11-05T04:47:54.834Z,2.70
2022-11-05T04:48:57.649Z,3.70
2022-11-05T04:49:59.934Z,4.00
2022-11-05T04:51:02.747Z,3.00
2022-11-05T04:52:04.739Z,3.40
2022-11-05T04:53:09.168Z,3.15
2022-11-05T04:54:11.205Z,3.10
2022-11-05T04:55:14.494Z,2.92
2022-11-05T04:56:19.628Z,2.72
2022-11-05T04:57:22.501Z,3.70
2022-11-05T04:58:24.385Z,3.78
2022-11-05T04:59:27.193Z,2.85
2022-11-05T05:00:29.186Z,2.78
2022-11-05T05:01:32.143Z,2.58
2022-11-05T05:02:34.306Z,4.35
2022-11-05T05:03:37.235Z,3.10
2022-11-05T05:04:39.008Z,3.33
2022-11-05T05:05:41.738Z,3.30
2022-11-05T05:06:43.596Z,3.70
2022-11-05T05:07:46.352Z,3.53
2022-11-05T05:08:51.198Z,3.92
2022-11-05T05:09:54.878Z,4.10
2022-11-05T05:11:00.418Z,3.40
2022-11-05T05:12:03.544Z,4.47
2022-11-05T05:13:05.347Z,3.45
2022-11-05T05:14:08.178Z,3.15
2022-11-05T05:15:09.972Z,6.55
2022-11-05T05:16:19.729Z,3.22
2022-11-05T05:17:21.796Z,3.10
2022-11-05T05:18:25.341Z,3.47
2022-11-05T05:19:28.502Z,3.13
2022-11-05T05:20:48.943Z,3.28
2022-11-05T05:21:50.722Z,3.97
2022-11-05T05:22:53.243Z,4.32
2022-11-05T05:23:57.463Z,4.18
2022-11-05T05:25:00.056Z,3.97
2022-11-05T05:26:02.847Z,3.60
2022-11-05T05:27:04.621Z,4.25
2022-11-05T05:28:07.350Z,3.30
2022-11-05T05:29:09.736Z,3.55
2022-11-05T05:30:13.085Z,5.15
2022-11-05T05:31:15.076Z,3.53
2022-11-05T05:32:17.879Z,3.60
2022-11-05T05:33:19.644Z,2.92
2022-11-05T05:34:22.439Z,3.33
2022-11-05T05:35:24.207Z,3.40
2022-11-05T05:36:27.085Z,3.92
2022-11-05T05:37:28.902Z,3.53
2022-11-05T05:38:31.712Z,5.35
2022-11-05T05:39:34.844Z,3.60
2022-11-05T05:40:37.628Z,3.00
2022-11-05T05:41:39.459Z,3.30
2022-11-05T05:42:43.560Z,2.80
2022-11-05T05:43:45.677Z,4.45
2022-11-05T05:44:48.469Z,3.60
2022-11-05T05:45:50.335Z,3.92
2022-11-05T05:46:54.857Z,3.03
2022-11-05T05:47:56.708Z,3.22
2022-11-05T05:48:59.631Z,3.28
2022-11-05T05:50:01.448Z,3.90
2022-11-05T05:51:05.229Z,3.83
2022-11-05T05:52:07.105Z,3.88
2022-11-05T05:53:10.358Z,4.03
2022-11-05T05:54:13.447Z,3.88
2022-11-05T05:55:16.899Z,3.88
2022-11-05T05:56:20.649Z,3.38
2022-11-05T05:57:22.550Z,4.15
2022-11-05T05:58:27.232Z,3.55
2022-11-05T05:59:29.012Z,3.08
2022-11-05T06:00:31.988Z,3.75
2022-11-05T06:01:34.158Z,3.00
2022-11-05T06:02:37.342Z,4.53
2022-11-05T06:03:39.403Z,3.30
2022-11-05T06:04:42.254Z,3.80
2022-11-05T06:05:44.065Z,3.35
2022-11-05T06:06:48.231Z,4.03
2022-11-05T06:07:55.959Z,5.28
2022-11-05T06:08:58.824Z,3.60
2022-11-05T06:10:00.615Z,3.53
2022-11-05T06:11:05.553Z,4.82
2022-11-05T06:12:07.777Z,3.60
2022-11-05T06:13:11.066Z,3.65
2022-11-05T06:14:13.938Z,3.95
2022-11-05T06:15:16.851Z,3.83
2022-11-05T06:16:19.455Z,3.40
2022-11-05T06:17:22.392Z,4.35
2022-11-05T06:18:24.476Z,4.03
2022-11-05T06:19:27.519Z,4.40
2022-11-05T06:20:29.393Z,3.97
2022-11-05T06:21:32.336Z,4.50
2022-11-05T06:22:34.409Z,4.38
2022-11-05T06:23:38.638Z,4.07
2022-11-05T06:24:40.535Z,3.85
2022-11-05T06:25:43.468Z,3.92
2022-11-05T06:26:46.711Z,3.95
2022-11-05T06:27:49.668Z,3.53
2022-11-05T06:28:51.469Z,3.30
2022-11-05T06:29:54.258Z,3.70
2022-11-05T06:30:56.444Z,3.13
2022-11-05T06:31:59.227Z,2.83
2022-11-05T06:33:05.008Z,3.53
2022-11-05T06:34:07.979Z,3.53
2022-11-05T06:35:09.866Z,2.95
2022-11-05T06:36:15.968Z,4.18
2022-11-05T06:37:17.807Z,4.07
2022-11-05T06:38:22.085Z,3.83
2022-11-05T06:39:24.878Z,3.60
2022-11-05T06:40:26.840Z,4.05
2022-11-05T06:41:29.667Z,3.60
2022-11-05T06:42:32.922Z,3.55
2022-11-05T06:43:35.882Z,3.55
2022-11-05T06:44:37.681Z,3.42
2022-11-05T06:45:40.493Z,3.75
2022-11-05T06:46:48.158Z,4.13
2022-11-05T06:47:56.033Z,3.30
2022-11-05T06:48:58.850Z,2.78
2022-11-05T06:50:00.611Z,4.57
2022-11-05T06:51:03.737Z,4.00
2022-11-05T06:52:05.637Z,3.47
2022-11-05T06:53:08.744Z,4.18
2022-11-05T06:54:11.166Z,3.65
2022-11-05T06:55:13.930Z,3.92
2022-11-05T06:56:15.787Z,3.28
2022-11-05T06:57:18.670Z,3.92
2022-11-05T06:58:22.113Z,3.95
2022-11-05T06:59:24.915Z,3.10
2022-11-05T07:00:26.784Z,5.93
2022-11-05T07:01:29.694Z,2.90
2022-11-05T07:02:31.642Z,4.00
2022-11-05T07:03:34.463Z,5.00
2022-11-05T07:04:36.279Z,4.20
2022-11-05T07:05:42.604Z,3.55
2022-11-05T07:06:44.404Z,3.60
2022-11-05T07:07:47.282Z,4.13
2022-11-05T07:08:49.232Z,3.90
2022-11-05T07:09:53.160Z,3.97
2022-11-05T07:10:55.946Z,4.18
2022-11-05T07:11:57.765Z,4.43
2022-11-05T07:13:07.841Z,3.50
2022-11-05T07:14:12.779Z,2.95
2022-11-05T07:15:14.632Z,3.38
2022-11-05T07:16:17.531Z,3.25
2022-11-05T07:17:19.494Z,3.95
2022-11-05T07:18:22.601Z,3.70
2022-11-05T07:19:25.425Z,3.47
2022-11-05T07:20:33.249Z,4.28
2022-11-05T07:21:37.006Z,3.90
2022-11-05T07:22:38.959Z,3.40
2022-11-05T07:23:41.895Z,3.42
2022-11-05T07:24:47.081Z,5.20
2022-11-05T07:25:49.941Z,3.55
2022-11-05T07:26:51.776Z,5.55
2022-11-05T07:27:54.571Z,3.65
2022-11-05T07:28:56.495Z,4.25
2022-11-05T07:30:00.668Z,3.63
2022-11-05T07:31:02.560Z,3.35
2022-11-05T07:32:05.999Z,3.85
2022-11-05T07:33:08.003Z,4.38
2022-11-05T07:34:10.920Z,3.30
2022-11-05T07:35:12.731Z,4.07
2022-11-05T07:36:15.699Z,4.18
2022-11-05T07:37:18.732Z,4.28
2022-11-05T07:38:21.492Z,4.05
2022-11-05T07:39:23.322Z,3.95
2022-11-05T07:40:28.694Z,4.25
2022-11-05T07:41:30.611Z,6.60
2022-11-05T07:42:35.621Z,4.18
2022-11-05T07:43:38.393Z,3.75
2022-11-05T07:44:40.422Z,4.50
2022-11-05T07:45:46.710Z,4.13
2022-11-05T07:46:49.072Z,3.55
2022-11-05T07:47:53.893Z,4.65
2022-11-05T07:48:55.699Z,3.20
2022-11-05T07:49:58.517Z,3.90
2022-11-05T07:51:01.289Z,4.35
2022-11-05T07:52:03.212Z,4.97
2022-11-05T07:53:07.671Z,4.13
2022-11-05T07:54:09.556Z,4.57
2022-11-05T07:55:13.737Z,4.53
2022-11-05T07:56:16.236Z,4.03
2022-11-05T07:57:19.022Z,4.00
2022-11-05T07:58:21.965Z,4.05
2022-11-05T07:59:23.743Z,4.05
2022-11-05T08:00:27.575Z,4.43
2022-11-05T08:01:30.869Z,4.63
2022-11-05T08:02:34.036Z,4.28
2022-11-05T08:03:36.233Z,4.28
2022-11-05T08:04:40.252Z,4.45
2022-11-05T08:05:44.621Z,4.13
2022-11-05T08:06:47.499Z,5.05
2022-11-05T08:07:49.603Z,3.90
2022-11-05T08:08:52.384Z,5.10
2022-11-05T08:09:54.173Z,4.45
2022-11-05T08:11:04.135Z,4.45
2022-11-05T08:12:06.945Z,6.07
2022-11-05T08:13:10.950Z,4.50
2022-11-05T08:14:14.325Z,5.65
2022-11-05T08:15:16.476Z,4.55
2022-11-05T08:16:19.384Z,4.18
2022-11-05T08:17:22.514Z,3.95
2022-11-05T08:18:31.168Z,4.75
2022-11-05T08:19:32.940Z,5.55
2022-11-05T08:20:36.376Z,4.78
2022-11-05T08:21:38.301Z,4.28
2022-11-05T08:22:43.762Z,5.40
2022-11-05T08:23:46.595Z,4.68
2022-11-05T08:24:48.607Z,4.07
2022-11-05T08:25:51.511Z,4.22
2022-11-05T08:26:53.837Z,4.63
2022-11-05T08:27:57.661Z,4.20
2022-11-05T08:29:00.350Z,4.10
2022-11-05T08:30:03.546Z,4.57
2022-11-05T08:31:05.625Z,5.28
2022-11-05T08:32:08.598Z,4.28
2022-11-05T08:33:14.212Z,4.45
2022-11-05T08:34:16.335Z,8.10
2022-11-05T08:35:20.277Z,4.85
2022-11-05T08:36:23.364Z,4.82
2022-11-05T08:37:25.190Z,4.95
2022-11-05T08:38:28.020Z,5.25
2022-11-05T08:39:30.945Z,4.32
2022-11-05T08:40:34.626Z,5.75
2022-11-05T08:41:37.503Z,5.65
2022-11-05T08:42:39.311Z,5.60
2022-11-05T08:43:42.203Z,4.70
2022-11-05T08:44:44.112Z,4.93
2022-11-05T08:45:47.246Z,5.15
2022-11-05T08:46:49.270Z,4.70
2022-11-05T08:47:52.158Z,4.53
2022-11-05T08:48:55.342Z,5.30
2022-11-05T08:49:58.406Z,5.50
2022-11-05T08:51:00.928Z,4.10
2022-11-05T08:52:03.787Z,5.13
2022-11-05T08:53:06.353Z,4.85
2022-11-05T08:54:09.414Z,4.43
2022-11-05T08:55:11.335Z,5.60
2022-11-05T08:56:14.448Z,4.55
2022-11-05T08:57:16.240Z,4.72
2022-11-05T08:58:20.975Z,4.35
2022-11-05T08:59:22.959Z,3.97
2022-11-05T09:00:26.234Z,4.47
2022-11-05T09:01:28.169Z,4.68
2022-11-05T09:02:31.194Z,5.30
2022-11-05T09:03:34.068Z,4.30
2022-11-05T09:04:37.284Z,5.40
2022-11-05T09:05:41.856Z,4.70
2022-11-05T09:06:44.935Z,4.45
2022-11-05T09:07:46.783Z,4.43
2022-11-05T09:08:49.798Z,4.72
2022-11-05T09:09:51.734Z,4.70
2022-11-05T09:10:54.612Z,4.03
2022-11-05T09:12:13.072Z,3.80
2022-11-05T09:13:35.934Z,3.90
2022-11-05T09:14:38.204Z,3.72
2022-11-05T09:15:47.337Z,4.82
2022-11-05T09:16:54.165Z,3.30
2022-11-05T09:17:56.992Z,4.22
2022-11-05T09:18:59.773Z,3.70
2022-11-05T09:20:04.434Z,4.40
2022-11-05T09:21:07.308Z,3.63
2022-11-05T09:22:12.636Z,3.90
2022-11-05T09:23:15.825Z,3.40
2022-11-05T09:24:17.741Z,3.60
2022-11-05T09:25:20.731Z,3.25
2022-11-05T09:26:23.574Z,3.65
2022-11-05T09:27:26.426Z,2.97
2022-11-05T09:28:30.264Z,4.03
2022-11-05T09:29:32.092Z,2.28
2022-11-05T09:30:34.980Z,3.17
2022-11-05T09:31:37.890Z,3.05
2022-11-05T09:32:40.239Z,2.75
2022-11-05T09:33:43.347Z,2.55
2022-11-05T09:34:48.500Z,2.90
2022-11-05T09:35:53.946Z,2.70
2022-11-05T09:36:57.422Z,3.50
2022-11-05T09:38:01.255Z,3.78
2022-11-05T09:39:05.460Z,2.85
2022-11-05T09:40:08.131Z,2.40
2022-11-05T09:41:19.903Z,2.60
2022-11-05T09:42:29.214Z,3.15
2022-11-05T09:43:37.331Z,2.70
2022-11-05T09:44:47.777Z,2.80
2022-11-05T09:45:55.571Z,2.65
2022-11-05T09:47:03.480Z,2.67
2022-11-05T09:48:11.741Z,2.17
2022-11-05T09:49:25.568Z,2.78
2022-11-05T09:50:33.187Z,2.35
2022-11-05T09:51:37.644Z,2.75
2022-11-05T09:52:39.502Z,2.50
2022-11-05T09:53:43.409Z,2.00
2022-11-05T09:54:46.057Z,2.20
2022-11-05T09:55:52.473Z,2.20
2022-11-05T09:56:55.892Z,2.55
2022-11-05T09:58:02.213Z,2.95
2022-11-05T09:59:13.752Z,1.95
2022-11-05T10:00:17.336Z,1.67
2022-11-05T10:01:24.763Z,1.85
2022-11-05T10:02:30.369Z,3.67
2022-11-05T10:03:36.049Z,2.65
2022-11-05T10:04:39.393Z,3.15
2022-11-05T10:05:42.671Z,2.97
2022-11-05T10:06:49.905Z,2.50
2022-11-05T10:07:56.764Z,2.90
2022-11-05T10:09:06.730Z,2.30
2022-11-05T10:10:20.500Z,2.63
2022-11-05T10:11:29.201Z,2.00
2022-11-05T10:12:37.420Z,1.95
2022-11-05T10:13:44.222Z,2.22
2022-11-05T10:14:52.221Z,2.03
2022-11-05T10:16:00.431Z,2.72
2022-11-05T10:17:11.144Z,2.50
2022-11-05T10:18:19.415Z,3.38
2022-11-05T10:19:26.534Z,2.50
2022-11-05T10:20:34.739Z,2.50
2022-11-05T10:22:05.129Z,2.83
2022-11-05T10:23:15.581Z,2.55
2022-11-05T10:24:19.494Z,2.78
2022-11-05T10:25:23.597Z,2.97
2022-11-05T10:26:27.870Z,2.58
2022-11-05T10:27:34.502Z,3.00
2022-11-05T10:28:37.762Z,3.88
2022-11-05T10:29:42.603Z,3.35
2022-11-05T10:30:47.301Z,2.90
2022-11-05T10:31:49.616Z,3.20
2022-11-05T10:32:56.358Z,3.05
2022-11-05T10:34:03.320Z,3.00
2022-11-05T10:35:08.643Z,2.88
2022-11-05T10:36:21.895Z,2.80
2022-11-05T10:37:24.745Z,3.00
2022-11-05T10:38:28.875Z,2.72
2022-11-05T10:39:33.659Z,2.10
2022-11-05T10:40:42.462Z,2.05
2022-11-05T10:41:56.798Z,2.17
2022-11-05T10:43:04.974Z,2.03
2022-11-05T10:44:23.999Z,2.35
2022-11-05T10:45:34.752Z,2.20
2022-11-05T10:46:41.228Z,2.03
2022-11-05T10:47:55.250Z,2.00
2022-11-05T10:49:18.587Z,2.20
2022-11-05T10:50:24.277Z,1.90
2022-11-05T10:51:27.450Z,1.92
2022-11-05T10:52:35.387Z,2.17
2022-11-05T10:53:40.808Z,1.90
2022-11-05T10:54:42.983Z,2.10
2022-11-05T10:55:48.338Z,1.70
2022-11-05T10:56:50.393Z,2.75
2022-11-05T10:57:53.511Z,2.15
2022-11-05T10:58:57.203Z,1.98
2022-11-05T11:00:19.669Z,1.73
2022-11-05T11:01:24.512Z,2.20
2022-11-05T11:02:26.969Z,1.77
2022-11-05T11:03:35.234Z,1.83
2022-11-05T11:04:38.253Z,1.90
2022-11-05T11:05:41.681Z,2.00
2022-11-05T11:06:51.288Z,2.10
2022-11-05T11:08:00.748Z,2.33
2022-11-05T11:09:09.482Z,4.03
2022-11-05T11:10:20.843Z,2.42
2022-11-05T11:11:30.050Z,2.40
2022-11-05T11:12:40.887Z,1.80
2022-11-05T11:13:52.231Z,2.13
2022-11-05T11:15:02.308Z,1.88
2022-11-05T11:16:15.065Z,1.60
2022-11-05T11:17:26.969Z,1.88
2022-11-05T11:18:35.977Z,1.90
2022-11-05T11:19:40.457Z,4.75
2022-11-05T11:20:45.042Z,2.15
2022-11-05T11:21:48.252Z,1.50
2022-11-05T11:23:02.331Z,1.80
2022-11-05T11:24:07.528Z,1.77
2022-11-05T11:25:23.949Z,1.90
2022-11-05T11:26:29.551Z,2.20
2022-11-05T11:27:34.406Z,1.77
2022-11-05T11:28:39.013Z,1.85
2022-11-05T11:29:48.046Z,1.65
2022-11-05T11:31:05.412Z,1.95
2022-11-05T11:32:14.078Z,1.88
2022-11-05T11:33:23.555Z,1.83
2022-11-05T11:34:30.040Z,3.58
2022-11-05T11:35:33.515Z,2.80
2022-11-05T11:36:41.360Z,2.00
2022-11-05T11:37:43.377Z,2.28
2022-11-05T11:38:47.179Z,1.75
2022-11-05T11:39:53.792Z,2.40
2022-11-05T11:41:02.763Z,1.52
2022-11-05T11:42:12.021Z,1.92
2022-11-05T11:43:23.649Z,1.98
2022-11-05T11:44:29.517Z,1.88
2022-11-05T11:45:35.115Z,1.73
2022-11-05T11:46:38.337Z,2.25
2022-11-05T11:47:43.914Z,1.55
2022-11-05T11:48:48.627Z,1.85
2022-11-05T11:49:52.079Z,2.17
2022-11-05T11:50:55.355Z,2.20
2022-11-05T11:52:01.676Z,2.40
2022-11-05T11:53:34.181Z,1.40
2022-11-05T11:54:37.002Z,1.80
2022-11-05T11:55:40.286Z,1.73
2022-11-05T11:56:45.689Z,1.67
2022-11-05T11:57:49.692Z,1.88
2022-11-05T11:58:53.972Z,1.58
2022-11-05T12:00:12.691Z,2.00
2022-11-05T12:01:49.764Z,1.40
2022-11-05T12:03:18.288Z,1.45
2022-11-05T12:04:29.392Z,1.80
2022-11-05T12:05:41.733Z,1.65
2022-11-05T12:06:48.084Z,2.15
2022-11-05T12:07:53.671Z,1.42
2022-11-05T12:09:07.181Z,1.83
2022-11-05T12:10:37.317Z,1.80
2022-11-05T12:11:46.887Z,2.17
2022-11-05T12:13:06.045Z,1.50
2022-11-05T12:14:19.715Z,1.95
2022-11-05T12:15:32.563Z,2.00
2022-11-05T12:17:17.272Z,1.88
2022-11-05T12:18:31.467Z,1.52
2022-11-05T12:19:52.277Z,2.13
2022-11-05T12:21:07.831Z,1.58
2022-11-05T12:22:21.311Z,3.60
2022-11-05T12:23:36.761Z,2.10
2022-11-05T12:25:00.589Z,1.40
2022-11-05T12:26:11.747Z,1.73
2022-11-05T12:27:26.302Z,1.70
2022-11-05T12:29:16.484Z,2.75
2022-11-05T12:30:15.474Z,1.60
2022-11-05T12:31:26.767Z,1.27
2022-11-05T12:32:50.370Z,1.30
2022-11-05T12:34:04.273Z,2.50
2022-11-05T12:35:18.541Z,1.33
2022-11-05T12:36:34.281Z,1.52
2022-11-05T12:37:46.658Z,1.60
2022-11-05T12:39:14.645Z,2.85
2022-11-05T12:40:38.137Z,2.10
2022-11-05T12:41:52.537Z,1.60
2022-11-05T12:43:11.384Z,1.50
2022-11-05T12:44:36.519Z,2.05
2022-11-05T12:45:46.284Z,1.65
2022-11-05T12:47:03.422Z,1.63
2022-11-05T12:48:26.520Z,2.10
2022-11-05T12:49:57.561Z,1.67
2022-11-05T12:51:10.585Z,2.60
2022-11-05T12:52:31.149Z,1.55
2022-11-05T12:53:45.725Z,1.65
2022-11-05T12:55:03.157Z,1.90
2022-11-05T12:56:13.824Z,1.25
2022-11-05T12:57:18.687Z,1.60
2022-11-05T12:58:27.885Z,1.58
2022-11-05T12:59:37.497Z,2.65
2022-11-05T13:00:44.099Z,1.50
2022-11-05T13:01:51.679Z,1.80
2022-11-05T13:03:02.374Z,1.60
2022-11-05T13:04:14.506Z,1.40
2022-11-05T13:05:21.784Z,2.08
2022-11-05T13:06:31.210Z,1.38
2022-11-05T13:07:39.088Z,1.65
2022-11-05T13:08:46.132Z,1.50
2022-11-05T13:09:54.370Z,1.20
2022-11-05T13:11:01.900Z,1.70
2022-11-05T13:12:07.951Z,1.70
2022-11-05T13:13:17.305Z,1.60
2022-11-05T13:14:26.595Z,2.13
2022-11-05T13:15:34.555Z,1.40
2022-11-05T13:16:38.820Z,1.10
2022-11-05T13:17:49.577Z,1.45
2022-11-05T13:18:55.913Z,1.65
2022-11-05T13:20:04.104Z,1.13
2022-11-05T13:21:08.512Z,1.50
2022-11-05T13:22:20.282Z,1.45
2022-11-05T13:23:32.129Z,1.35
2022-11-05T13:24:40.078Z,1.30
2022-11-05T13:25:48.935Z,1.10
2022-11-05T13:26:54.507Z,3.42
2022-11-05T13:28:03.896Z,1.17
2022-11-05T13:29:12.549Z,1.60
2022-11-05T13:30:20.628Z,1.85
2022-11-05T13:31:31.319Z,1.30
2022-11-05T13:32:42.923Z,1.70
2022-11-05T13:33:48.774Z,2.67
2022-11-05T13:34:51.533Z,1.50
2022-11-05T13:36:12.022Z,2.85
2022-11-05T13:37:38.655Z,3.70
2022-11-05T13:39:00.964Z,1.65
2022-11-05T13:40:09.564Z,1.50
2022-11-05T13:41:28.534Z,1.45
2022-11-05T13:42:53.746Z,1.33
2022-11-05T13:44:11.349Z,1.17
2022-11-05T13:45:51.312Z,1.50
2022-11-05T13:47:13.023Z,2.30
2022-11-05T13:48:44.602Z,1.02
2022-11-05T13:50:03.198Z,1.13
2022-11-05T13:51:27.266Z,1.90
2022-11-05T13:52:46.266Z,3.50
2022-11-05T13:54:08.154Z,2.72
2022-11-05T13:55:51.617Z,1.52
2022-11-05T13:57:13.909Z,3.08
2022-11-05T13:58:46.470Z,1.65
2022-11-05T14:00:02.141Z,2.15
2022-11-05T14:01:18.383Z,1.65
2022-11-05T14:02:24.421Z,2.58
2022-11-05T14:03:27.861Z,1.23
2022-11-05T14:04:33.569Z,1.92
2022-11-05T14:05:39.892Z,1.60
2022-11-05T14:06:42.182Z,1.60
2022-11-05T14:07:47.594Z,2.00
2022-11-05T14:08:50.743Z,1.90
2022-11-05T14:09:55.591Z,2.22
2022-11-05T14:11:01.702Z,1.90
2022-11-05T14:12:06.849Z,1.38
2022-11-05T14:13:21.540Z,1.70
2022-11-05T14:14:27.103Z,1.40
2022-11-05T14:15:32.414Z,2.47
2022-11-05T14:16:49.751Z,2.00
2022-11-05T14:17:58.433Z,1.75
2022-11-05T14:19:29.458Z,1.67
2022-11-05T14:20:47.560Z,1.70
2022-11-05T14:21:51.104Z,1.70
2022-11-05T14:22:54.416Z,1.70
2022-11-05T14:23:57.715Z,1.90
2022-11-05T14:25:01.051Z,1.90
2022-11-05T14:26:14.800Z,1.90
2022-11-05T14:27:44.488Z,1.70
2022-11-05T14:28:50.203Z,1.83
2022-11-05T14:29:52.995Z,1.77
2022-11-05T14:30:55.215Z,1.55
2022-11-05T14:32:09.595Z,1.70
2022-11-05T14:33:17.841Z,2.08
2022-11-05T14:34:24.932Z,2.35
2022-11-05T14:35:39.552Z,1.70
2022-11-05T14:36:42.967Z,1.90
2022-11-05T14:37:54.215Z,2.10
2022-11-05T14:39:04.410Z,2.00
2022-11-05T14:40:28.272Z,2.30
2022-11-05T14:41:31.168Z,1.95
2022-11-05T14:42:33.940Z,2.17
2022-11-05T14:43:36.209Z,3.00
2022-11-05T14:45:03.216Z,2.25
2022-11-05T14:46:07.769Z,2.63
2022-11-05T14:47:21.851Z,1.65
2022-11-05T14:48:37.756Z,2.50
2022-11-05T14:49:52.959Z,3.08
2022-11-05T14:50:56.535Z,2.45
2022-11-05T14:52:04.734Z,2.83
2022-11-05T14:53:26.986Z,2.20
2022-11-05T14:54:35.607Z,4.25
2022-11-05T14:55:40.378Z,2.80
2022-11-05T14:56:43.585Z,2.90
2022-11-05T14:58:20.760Z,3.08